createdAt,value
2023-04-04T00:01:10.353Z,4.82
2023-04-04T00:03:36.818Z,4.43
2023-04-04T00:06:03.256Z,4.55
2023-04-04T00:08:29.568Z,4.57
2023-04-04T00:10:55.889Z,4.65
2023-04-04T00:13:22.212Z,4.81
2023-04-04T00:15:48.589Z,4.58
2023-04-04T00:18:14.996Z,4.63
2023-04-04T00:20:41.434Z,4.34
2023-04-04T00:23:07.945Z,4.30
2023-04-04T00:25:34.284Z,4.13
2023-04-04T00:28:00.921Z,4.14
2023-04-04T00:30:27.593Z,4.02
2023-04-04T00:32:53.997Z,4.31
2023-04-04T00:35:20.396Z,3.95
2023-04-04T00:37:46.766Z,3.94
2023-04-04T00:40:13.095Z,3.85
2023-04-04T00:42:39.433Z,3.87
2023-04-04T00:45:05.753Z,3.99
2023-04-04T00:47:32.084Z,3.89
2023-04-04T00:49:58.412Z,4.07
2023-04-04T00:52:24.752Z,3.90
2023-04-04T00:54:51.097Z,4.06
2023-04-04T00:57:17.403Z,4.16
2023-04-04T00:59:43.701Z,3.91
2023-04-04T01:02:10.014Z,3.75
2023-04-04T01:04:36.545Z,3.75
2023-04-04T01:07:03.029Z,3.76
2023-04-04T01:09:29.352Z,3.75
2023-04-04T01:11:55.704Z,3.64
2023-04-04T01:14:22.055Z,3.69
2023-04-04T01:16:48.396Z,3.58
2023-04-04T01:19:14.747Z,3.69
2023-04-04T01:21:41.061Z,3.56
2023-04-04T01:24:07.381Z,3.45
2023-04-04T01:26:33.680Z,3.61
2023-04-04T01:29:00.004Z,3.50
2023-04-04T01:31:26.341Z,3.59
2023-04-04T01:33:52.710Z,3.21
2023-04-04T01:36:19.086Z,3.34
2023-04-04T01:38:45.434Z,3.34
2023-04-04T01:41:11.751Z,3.71
2023-04-04T01:43:38.060Z,3.36
2023-04-04T01:46:04.372Z,3.33
2023-04-04T01:48:30.737Z,3.34
2023-04-04T01:50:57.055Z,3.37
2023-04-04T01:53:23.368Z,3.33
2023-04-04T01:55:49.694Z,3.45
2023-04-04T01:58:16.058Z,3.35
2023-04-04T02:00:42.514Z,3.29
2023-04-04T02:03:09.087Z,3.24
2023-04-04T02:05:35.415Z,3.34
2023-04-04T02:08:01.756Z,3.22
2023-04-04T02:10:28.084Z,3.26
2023-04-04T02:12:54.405Z,3.22
2023-04-04T02:15:20.729Z,3.47
2023-04-04T02:17:47.064Z,3.28
2023-04-04T02:20:13.429Z,3.60
2023-04-04T02:22:39.748Z,3.47
2023-04-04T02:25:06.085Z,3.35
2023-04-04T02:27:32.402Z,3.46
2023-04-04T02:29:58.710Z,3.53
2023-04-04T02:32:25.055Z,3.22
2023-04-04T02:34:51.400Z,3.43
2023-04-04T02:37:17.791Z,3.53
2023-04-04T02:39:44.147Z,3.36
2023-04-04T02:42:10.472Z,3.51
2023-04-04T02:44:36.808Z,3.44
2023-04-04T02:47:03.142Z,3.43
2023-04-04T02:49:29.505Z,3.51
2023-04-04T02:51:55.839Z,3.46
2023-04-04T02:54:22.201Z,3.62
2023-04-04T02:56:48.508Z,3.55
2023-04-04T02:59:14.892Z,3.68
2023-04-04T03:01:41.313Z,3.59
2023-04-04T03:04:07.723Z,3.59
2023-04-04T03:06:34.063Z,3.74
2023-04-04T03:09:00.383Z,3.49
2023-04-04T03:11:26.705Z,3.64
2023-04-04T03:13:53.006Z,3.65
2023-04-04T03:16:19.326Z,3.68
2023-04-04T03:18:45.668Z,3.82
2023-04-04T03:21:11.979Z,3.88
2023-04-04T03:23:38.278Z,3.53
2023-04-04T03:26:04.606Z,3.56
2023-04-04T03:28:30.931Z,3.80
2023-04-04T03:30:57.233Z,3.75
2023-04-04T03:33:23.549Z,3.92
2023-04-04T03:35:49.912Z,4.07
2023-04-04T03:38:16.248Z,4.32
2023-04-04T03:40:42.740Z,3.97
2023-04-04T03:43:09.333Z,4.42
2023-04-04T03:45:35.668Z,4.60
2023-04-04T03:48:02.023Z,3.98
2023-04-04T03:50:28.379Z,3.87
2023-04-04T03:52:54.699Z,4.07
2023-04-04T03:55:21.034Z,3.96
2023-04-04T03:57:47.380Z,3.73
2023-04-04T04:00:13.709Z,3.81
2023-04-04T04:02:40.188Z,4.05
2023-04-04T04:05:06.602Z,4.04
2023-04-04T04:07:32.931Z,4.13
2023-04-04T04:09:59.347Z,4.19
2023-04-04T04:12:25.663Z,4.39
2023-04-04T04:14:51.989Z,4.60
2023-04-04T04:17:18.317Z,4.47
2023-04-04T04:19:44.644Z,4.29
2023-04-04T04:22:10.965Z,4.45
2023-04-04T04:24:37.291Z,4.28
2023-04-04T04:27:03.606Z,4.41
2023-04-04T04:29:30.898Z,4.21
2023-04-04T04:31:57.706Z,4.38
2023-04-04T04:34:24.051Z,4.29
2023-04-04T04:36:50.354Z,4.49
2023-04-04T04:39:16.683Z,4.87
2023-04-04T04:41:43.001Z,4.71
2023-04-04T04:44:09.304Z,4.79
2023-04-04T04:46:35.666Z,4.79
2023-04-04T04:49:02.081Z,4.85
2023-04-04T04:51:28.428Z,4.94
2023-04-04T04:53:54.762Z,5.12
2023-04-04T04:56:21.078Z,5.04
2023-04-04T04:58:47.417Z,4.95
2023-04-04T05:01:13.808Z,5.01
2023-04-04T05:03:40.196Z,4.83
2023-04-04T05:06:06.534Z,4.84
2023-04-04T05:08:32.840Z,5.17
2023-04-04T05:10:59.168Z,5.48
2023-04-04T05:13:25.465Z,5.61
2023-04-04T05:15:51.762Z,5.40
2023-04-04T05:18:18.072Z,5.58
2023-04-04T05:20:44.374Z,5.36
2023-04-04T05:23:10.699Z,5.31
2023-04-04T05:25:37.015Z,5.75
2023-04-04T05:28:03.342Z,5.41
2023-04-04T05:30:29.665Z,6.23
2023-04-04T05:32:56.056Z,6.23
2023-04-04T05:35:22.384Z,6.36
2023-04-04T05:37:48.717Z,5.22
2023-04-04T05:40:15.045Z,5.56
2023-04-04T05:42:41.346Z,5.58
2023-04-04T05:45:07.690Z,5.86
2023-04-04T05:47:34.035Z,5.77
2023-04-04T05:50:00.377Z,5.63
2023-04-04T05:52:26.691Z,5.99
2023-04-04T05:54:53.057Z,5.97
2023-04-04T05:57:19.370Z,6.43
2023-04-04T05:59:45.665Z,6.54
2023-04-04T06:02:11.982Z,5.96
2023-04-04T06:04:38.320Z,5.94
2023-04-04T06:07:04.632Z,6.43
2023-04-04T06:09:31.076Z,6.20
2023-04-04T06:11:57.390Z,6.57
2023-04-04T06:14:23.705Z,6.57
2023-04-04T06:16:50.020Z,6.90
2023-04-04T06:19:16.376Z,7.17
2023-04-04T06:21:42.746Z,6.98
2023-04-04T06:24:09.061Z,7.62
2023-04-04T06:26:35.378Z,8.66
2023-04-04T06:29:01.726Z,7.44
2023-04-04T06:31:28.070Z,6.98
2023-04-04T06:33:54.409Z,6.87
2023-04-04T06:36:20.767Z,6.91
2023-04-04T06:38:47.088Z,6.91
2023-04-04T06:41:13.405Z,7.07
2023-04-04T06:43:39.742Z,7.14
2023-04-04T06:46:06.046Z,6.92
2023-04-04T06:48:32.358Z,6.54
2023-04-04T06:50:58.672Z,6.15
2023-04-04T06:53:24.985Z,6.18
2023-04-04T06:55:51.293Z,6.73
2023-04-04T06:58:17.613Z,6.38
2023-04-04T07:00:43.949Z,6.35
2023-04-04T07:03:10.334Z,6.66
2023-04-04T07:05:36.676Z,6.23
2023-04-04T07:08:02.999Z,6.38
2023-04-04T07:10:29.317Z,6.41
2023-04-04T07:12:55.641Z,6.36
2023-04-04T07:15:21.980Z,6.49
2023-04-04T07:17:48.330Z,6.51
2023-04-04T07:20:14.688Z,6.53
2023-04-04T07:22:41.059Z,6.66
2023-04-04T07:25:07.434Z,6.90
2023-04-04T07:27:33.801Z,7.08
2023-04-04T07:30:00.209Z,6.76
2023-04-04T07:32:26.573Z,7.29
2023-04-04T07:34:52.939Z,6.85
2023-04-04T07:37:19.251Z,7.35
2023-04-04T07:39:45.596Z,7.04
2023-04-04T07:42:11.959Z,7.29
2023-04-04T07:44:38.274Z,7.29
2023-04-04T07:47:10.085Z,7.55
2023-04-04T07:49:36.772Z,7.40
2023-04-04T07:52:03.114Z,6.99
2023-04-04T07:54:29.473Z,6.97
2023-04-04T07:56:55.780Z,6.54
2023-04-04T07:59:22.155Z,6.86
2023-04-04T08:01:48.549Z,7.25
2023-04-04T08:04:14.953Z,6.96
2023-04-04T08:06:41.307Z,7.22
2023-04-04T08:09:07.812Z,7.23
2023-04-04T08:11:34.138Z,7.19
2023-04-04T08:14:00.502Z,7.57
2023-04-04T08:16:26.862Z,7.38
2023-04-04T08:18:53.296Z,7.24
2023-04-04T08:21:19.640Z,8.06
2023-04-04T08:23:45.980Z,8.81
2023-04-04T08:26:12.315Z,8.50
2023-04-04T08:28:38.699Z,8.36
2023-04-04T08:31:05.150Z,7.84
2023-04-04T08:33:44.664Z,8.22
2023-04-04T08:36:13.229Z,7.50
2023-04-04T08:38:39.575Z,6.87
2023-04-04T08:41:05.890Z,7.37
2023-04-04T08:43:32.188Z,7.00
2023-04-04T08:45:58.513Z,7.84
2023-04-04T08:48:24.821Z,8.64
2023-04-04T08:50:51.146Z,7.84
2023-04-04T08:53:17.500Z,7.64
2023-04-04T08:55:43.796Z,7.88
2023-04-04T08:58:10.100Z,8.93
2023-04-04T09:00:36.412Z,10.85
2023-04-04T09:03:02.794Z,9.82
2023-04-04T09:05:29.205Z,7.50
2023-04-04T09:07:55.531Z,10.28
2023-04-04T09:10:21.858Z,10.88
2023-04-04T09:12:48.166Z,10.77
2023-04-04T09:15:14.492Z,8.66
2023-04-04T09:17:40.813Z,8.84
2023-04-04T09:20:07.140Z,9.77
2023-04-04T09:22:33.471Z,9.00
2023-04-04T09:24:59.778Z,9.47
2023-04-04T09:27:26.080Z,9.02
2023-04-04T09:29:52.392Z,8.80
2023-04-04T09:32:18.728Z,8.03
2023-04-04T09:34:45.114Z,7.29
2023-04-04T09:37:11.485Z,8.23
2023-04-04T09:39:38.086Z,7.89
2023-04-04T09:42:04.579Z,7.74
2023-04-04T09:44:30.892Z,7.35
2023-04-04T09:46:57.240Z,6.96
2023-04-04T09:49:23.557Z,6.56
2023-04-04T09:51:49.879Z,6.59
2023-04-04T09:54:28.259Z,7.45
2023-04-04T09:56:56.309Z,7.07
2023-04-04T09:59:22.634Z,6.50
2023-04-04T10:01:49.011Z,6.94
2023-04-04T10:04:15.370Z,7.43
2023-04-04T10:06:41.713Z,7.82
2023-04-04T10:09:08.134Z,7.34
2023-04-04T10:11:34.524Z,8.03
2023-04-04T10:14:00.885Z,8.22
2023-04-04T10:16:27.278Z,7.57
2023-04-04T10:18:53.645Z,6.80
2023-04-04T10:21:19.974Z,7.16
2023-04-04T10:23:46.283Z,7.04
2023-04-04T10:26:12.686Z,7.13
2023-04-04T10:28:39.264Z,6.69
2023-04-04T10:31:06.797Z,6.03
2023-04-04T10:33:33.462Z,5.77
2023-04-04T10:35:59.803Z,5.92
2023-04-04T10:38:26.129Z,6.03
2023-04-04T10:40:52.442Z,6.00
2023-04-04T10:43:18.763Z,6.04
2023-04-04T10:45:45.087Z,6.28
2023-04-04T10:48:11.424Z,5.77
2023-04-04T10:50:37.764Z,5.84
2023-04-04T10:53:04.093Z,6.00
2023-04-04T10:55:30.407Z,5.79
2023-04-04T10:57:56.728Z,5.59
2023-04-04T11:00:23.049Z,5.85
2023-04-04T11:02:49.412Z,5.35
2023-04-04T11:05:15.749Z,5.43
2023-04-04T11:07:42.065Z,5.44
2023-04-04T11:10:08.391Z,5.66
2023-04-04T11:12:34.715Z,5.15
2023-04-04T11:15:01.042Z,5.22
2023-04-04T11:17:27.374Z,5.39
2023-04-04T11:19:53.689Z,5.10
2023-04-04T11:22:20.040Z,5.26
2023-04-04T11:24:46.341Z,5.44
2023-04-04T11:27:12.843Z,4.80
2023-04-04T11:29:39.172Z,4.61
2023-04-04T11:32:05.497Z,4.83
2023-04-04T11:34:31.847Z,5.28
2023-04-04T11:36:58.161Z,4.94
2023-04-04T11:39:24.492Z,4.90
2023-04-04T11:41:50.811Z,5.00
2023-04-04T11:44:17.124Z,4.55
2023-04-04T11:46:43.450Z,4.82
2023-04-04T11:49:09.749Z,4.82
2023-04-04T11:51:36.078Z,4.13
2023-04-04T11:54:02.393Z,3.96
2023-04-04T11:56:28.713Z,4.27
2023-04-04T11:59:08.692Z,4.17
2023-04-04T12:01:37.559Z,4.14
2023-04-04T12:04:03.876Z,4.12
2023-04-04T12:06:30.187Z,4.13
2023-04-04T12:08:56.508Z,4.61
2023-04-04T12:11:22.832Z,4.33
2023-04-04T12:13:49.149Z,4.59
2023-04-04T12:16:15.513Z,4.41
2023-04-04T12:18:41.833Z,4.19
2023-04-04T12:21:08.138Z,4.09
2023-04-04T12:23:34.465Z,3.60
2023-04-04T12:26:00.764Z,3.81
2023-04-04T12:28:28.192Z,4.50
2023-04-04T12:30:54.709Z,4.02
2023-04-04T12:33:21.049Z,4.38
2023-04-04T12:35:47.384Z,3.85
2023-04-04T12:38:13.734Z,3.74
2023-04-04T12:40:40.073Z,3.54
2023-04-04T12:43:06.382Z,3.11
2023-04-04T12:45:32.727Z,3.37
2023-04-04T12:47:59.111Z,3.39
2023-04-04T12:50:25.532Z,3.35
2023-04-04T12:52:51.887Z,3.09
2023-04-04T12:55:18.199Z,3.35
2023-04-04T12:57:44.515Z,3.61
2023-04-04T13:00:10.846Z,3.65
2023-04-04T13:02:37.239Z,3.87
2023-04-04T13:05:03.599Z,3.33
2023-04-04T13:07:29.930Z,3.76
2023-04-04T13:09:56.248Z,3.99
2023-04-04T13:12:22.594Z,3.80
2023-04-04T13:14:48.917Z,4.41
2023-04-04T13:17:15.235Z,3.98
2023-04-04T13:19:41.540Z,4.21
2023-04-04T13:22:07.864Z,4.59
2023-04-04T13:24:34.200Z,5.26
2023-04-04T13:27:00.503Z,5.00
2023-04-04T13:29:26.818Z,5.11
2023-04-04T13:31:53.137Z,4.89
2023-04-04T13:34:19.462Z,5.43
2023-04-04T13:36:45.825Z,4.71
2023-04-04T13:39:12.170Z,4.82
2023-04-04T13:41:38.484Z,4.23
2023-04-04T13:44:04.809Z,4.34
2023-04-04T13:46:31.202Z,4.05
2023-04-04T13:48:57.564Z,5.00
2023-04-04T13:51:23.889Z,5.05
2023-04-04T13:53:50.227Z,4.72
2023-04-04T13:56:18.724Z,4.19
2023-04-04T13:58:45.565Z,4.07
2023-04-04T14:01:11.943Z,4.01
2023-04-04T14:03:38.375Z,4.21
2023-04-04T14:06:10.464Z,4.14
2023-04-04T14:08:37.342Z,3.68
2023-04-04T14:11:03.689Z,3.58
2023-04-04T14:13:30.020Z,3.95
2023-04-04T14:15:56.316Z,4.00
2023-04-04T14:18:22.625Z,4.09
2023-04-04T14:20:48.953Z,3.89
2023-04-04T14:23:15.264Z,3.82
2023-04-04T14:25:41.828Z,3.93
2023-04-04T14:28:08.328Z,3.99
2023-04-04T14:30:34.658Z,3.74
2023-04-04T14:33:01.064Z,4.00
2023-04-04T14:35:27.422Z,3.85
2023-04-04T14:37:55.194Z,4.34
2023-04-04T14:40:22.240Z,4.04
2023-04-04T14:42:48.568Z,4.15
2023-04-04T14:45:14.879Z,4.06
2023-04-04T14:47:41.267Z,3.61
2023-04-04T14:50:07.662Z,4.19
2023-04-04T14:52:33.961Z,4.05
2023-04-04T14:55:00.274Z,4.03
2023-04-04T14:57:26.598Z,3.78
2023-04-04T14:59:52.903Z,4.06
2023-04-04T15:02:19.244Z,3.74
2023-04-04T15:04:45.639Z,3.57
2023-04-04T15:07:12.084Z,3.74
2023-04-04T15:09:38.399Z,3.83
2023-04-04T15:12:04.728Z,4.03
2023-04-04T15:14:31.039Z,3.79
2023-04-04T15:16:57.356Z,3.82
2023-04-04T15:19:23.679Z,3.64
2023-04-04T15:21:49.996Z,3.70
2023-04-04T15:24:16.303Z,3.70
2023-04-04T15:26:42.619Z,3.94
2023-04-04T15:29:08.941Z,3.87
2023-04-04T15:31:35.291Z,3.72
2023-04-04T15:34:01.649Z,3.96
2023-04-04T15:36:27.987Z,4.15
2023-04-04T15:38:54.318Z,3.91
2023-04-04T15:41:20.616Z,3.79
2023-04-04T15:43:47.063Z,4.07
2023-04-04T15:46:13.473Z,4.07
2023-04-04T15:48:39.809Z,3.95
2023-04-04T15:51:06.129Z,4.01
2023-04-04T15:53:32.440Z,4.15
2023-04-04T15:55:58.769Z,4.07
2023-04-04T15:58:25.098Z,4.15
2023-04-04T16:00:51.418Z,4.13
2023-04-04T16:03:17.830Z,4.01
2023-04-04T16:05:44.169Z,3.69
2023-04-04T16:08:10.488Z,4.23
2023-04-04T16:10:36.793Z,3.93
2023-04-04T16:13:03.129Z,3.80
2023-04-04T16:15:29.468Z,4.20
2023-04-04T16:17:55.821Z,4.06
2023-04-04T16:20:22.206Z,4.07
2023-04-04T16:22:48.511Z,4.15
2023-04-04T16:25:14.834Z,4.01
2023-04-04T16:27:41.154Z,4.03
2023-04-04T16:30:07.449Z,4.06
2023-04-04T16:32:33.798Z,3.87
2023-04-04T16:35:00.130Z,4.18
2023-04-04T16:37:26.454Z,3.95
2023-04-04T16:39:52.785Z,3.88
2023-04-04T16:42:19.261Z,4.13
2023-04-04T16:44:45.614Z,4.13
2023-04-04T16:47:12.264Z,4.23
2023-04-04T16:49:38.681Z,4.09
2023-04-04T16:52:05.088Z,3.99
2023-04-04T16:54:31.405Z,4.01
2023-04-04T16:56:57.709Z,3.94
2023-04-04T16:59:24.052Z,3.91
2023-04-04T17:01:50.448Z,4.05
2023-04-04T17:04:16.797Z,3.86
2023-04-04T17:06:43.155Z,4.15
2023-04-04T17:09:09.464Z,4.37
2023-04-04T17:11:35.794Z,4.31
2023-04-04T17:14:02.113Z,4.14
2023-04-04T17:16:28.459Z,4.21
2023-04-04T17:18:54.824Z,4.35
2023-04-04T17:21:21.137Z,4.74
2023-04-04T17:23:47.482Z,4.74
2023-04-04T17:26:13.791Z,4.78
2023-04-04T17:28:40.156Z,4.58
2023-04-04T17:31:06.507Z,4.47
2023-04-04T17:33:32.829Z,4.25
2023-04-04T17:35:59.155Z,4.60
2023-04-04T17:38:25.478Z,4.61
2023-04-04T17:40:51.797Z,4.67
2023-04-04T17:43:18.137Z,4.86
2023-04-04T17:45:44.601Z,4.64
2023-04-04T17:48:10.935Z,4.33
2023-04-04T17:50:37.303Z,4.76
2023-04-04T17:53:03.619Z,4.60
2023-04-04T17:55:29.932Z,4.85
2023-04-04T17:57:56.252Z,4.71
2023-04-04T18:00:22.622Z,4.87
2023-04-04T18:02:49.043Z,4.98
2023-04-04T18:05:15.410Z,5.22
2023-04-04T18:07:41.714Z,5.15
2023-04-04T18:10:08.021Z,5.15
2023-04-04T18:12:35.656Z,4.93
2023-04-04T18:15:02.160Z,5.25
2023-04-04T18:17:28.513Z,5.10
2023-04-04T18:19:55.948Z,4.88
2023-04-04T18:22:22.274Z,4.90
2023-04-04T18:24:48.810Z,4.94
2023-04-04T18:27:15.192Z,5.08
2023-04-04T18:29:41.513Z,5.14
2023-04-04T18:32:07.817Z,5.18
2023-04-04T18:34:34.118Z,5.13
2023-04-04T18:37:00.445Z,5.30
2023-04-04T18:39:26.767Z,5.16
2023-04-04T18:41:53.099Z,5.52
2023-04-04T18:44:19.409Z,5.52
2023-04-04T18:46:45.819Z,5.46
2023-04-04T18:49:12.173Z,5.44
2023-04-04T18:51:38.480Z,5.58
2023-04-04T18:54:04.800Z,5.69
2023-04-04T18:56:31.105Z,6.01
2023-04-04T18:58:57.447Z,5.91
2023-04-04T19:01:23.805Z,5.71
2023-04-04T19:03:50.183Z,5.69
2023-04-04T19:06:16.514Z,5.73
2023-04-04T19:08:42.831Z,5.86
2023-04-04T19:11:09.172Z,5.68
2023-04-04T19:13:35.494Z,5.75
2023-04-04T19:16:01.832Z,5.75
2023-04-04T19:18:28.189Z,6.15
2023-04-04T19:20:54.486Z,6.26
2023-04-04T19:23:20.803Z,6.48
2023-04-04T19:25:47.105Z,6.30
2023-04-04T19:28:13.440Z,6.44
2023-04-04T19:30:39.833Z,6.34
2023-04-04T19:33:06.191Z,6.20
2023-04-04T19:35:32.518Z,5.86
2023-04-04T19:37:58.878Z,5.89
2023-04-04T19:40:25.224Z,6.00
2023-04-04T19:42:51.536Z,6.01
2023-04-04T19:45:17.838Z,6.12
2023-04-04T19:47:44.166Z,6.62
2023-04-04T19:50:10.542Z,6.46
2023-04-04T19:52:36.845Z,6.45
2023-04-04T19:55:03.153Z,6.27
2023-04-04T19:57:29.477Z,6.90
2023-04-04T19:59:55.791Z,6.73
2023-04-04T20:02:22.124Z,6.36
2023-04-04T20:04:48.519Z,6.57
2023-04-04T20:07:14.865Z,6.72
2023-04-04T20:09:41.164Z,6.91
2023-04-04T20:12:07.464Z,6.74
2023-04-04T20:14:33.766Z,6.64
2023-04-04T20:17:00.119Z,7.00
2023-04-04T20:19:26.468Z,6.92
2023-04-04T20:21:53.014Z,6.79
2023-04-04T20:24:19.532Z,6.80
2023-04-04T20:26:45.854Z,6.98
2023-04-04T20:29:12.183Z,7.01
2023-04-04T20:31:38.526Z,6.97
2023-04-04T20:34:04.870Z,7.17
2023-04-04T20:36:31.428Z,6.65
2023-04-04T20:38:57.758Z,6.76
2023-04-04T20:41:24.070Z,6.90
2023-04-04T20:43:50.460Z,6.54
2023-04-04T20:46:16.832Z,6.54
2023-04-04T20:48:43.223Z,6.46
2023-04-04T20:51:09.535Z,6.35
2023-04-04T20:53:35.847Z,6.30
2023-04-04T20:56:02.168Z,6.63
2023-04-04T20:58:28.491Z,6.31
2023-04-04T21:00:54.842Z,6.52
2023-04-04T21:03:21.193Z,6.80
2023-04-04T21:05:47.498Z,6.66
2023-04-04T21:08:13.814Z,6.75
2023-04-04T21:10:40.372Z,6.53
2023-04-04T21:13:06.875Z,6.78
2023-04-04T21:15:33.228Z,6.98
2023-04-04T21:17:59.615Z,6.57
2023-04-04T21:20:25.976Z,6.63
2023-04-04T21:22:52.284Z,6.89
2023-04-04T21:25:18.576Z,7.01
2023-04-04T21:27:44.922Z,7.43
2023-04-04T21:30:11.242Z,7.02
2023-04-04T21:32:37.562Z,7.16
2023-04-04T21:35:03.892Z,7.33
2023-04-04T21:37:30.219Z,7.62
2023-04-04T21:39:56.544Z,7.44
2023-04-04T21:42:22.850Z,7.36
2023-04-04T21:44:49.150Z,7.46
2023-04-04T21:47:15.892Z,7.35
2023-04-04T21:49:42.215Z,7.38
2023-04-04T21:52:08.553Z,7.54
2023-04-04T21:54:34.867Z,7.69
2023-04-04T21:57:01.185Z,7.42
2023-04-04T21:59:27.610Z,7.27
2023-04-04T22:01:54.004Z,7.44
2023-04-04T22:04:20.358Z,7.71
2023-04-04T22:06:46.703Z,7.53
2023-04-04T22:09:13.003Z,7.46
2023-04-04T22:11:39.311Z,7.66
2023-04-04T22:14:05.636Z,7.55
2023-04-04T22:16:31.997Z,7.67
2023-04-04T22:18:58.357Z,7.88
2023-04-04T22:21:24.697Z,7.52
2023-04-04T22:23:50.999Z,7.35
2023-04-04T22:26:17.310Z,7.87
2023-04-04T22:28:43.632Z,7.57
2023-04-04T22:31:09.963Z,7.87
2023-04-04T22:33:36.281Z,7.74
2023-04-04T22:36:02.643Z,8.26
2023-04-04T22:38:29.026Z,7.37
2023-04-04T22:40:55.339Z,7.82
2023-04-04T22:43:21.656Z,7.72
2023-04-04T22:45:48.040Z,7.79
2023-04-04T22:48:14.385Z,7.74
2023-04-04T22:50:40.825Z,7.98
2023-04-04T22:53:07.254Z,8.09
2023-04-04T22:55:33.593Z,7.88
2023-04-04T22:57:59.907Z,7.98
2023-04-04T23:00:26.247Z,8.29
2023-04-04T23:02:52.571Z,8.34
2023-04-04T23:05:18.889Z,8.09
2023-04-04T23:07:45.199Z,8.33
2023-04-04T23:10:11.533Z,8.13
2023-04-04T23:12:37.843Z,7.95
2023-04-04T23:15:04.141Z,8.00
2023-04-04T23:17:31.779Z,7.79
2023-04-04T23:19:58.223Z,8.22
2023-04-04T23:22:24.540Z,8.00
2023-04-04T23:24:50.880Z,7.87
2023-04-04T23:27:17.199Z,8.14
2023-04-04T23:29:43.511Z,7.88
2023-04-04T23:32:09.817Z,8.15
2023-04-04T23:34:36.113Z,8.21
2023-04-04T23:37:02.435Z,8.26
2023-04-04T23:39:28.777Z,8.45
2023-04-04T23:41:55.084Z,8.17
2023-04-04T23:44:21.388Z,8.38
2023-04-04T23:46:47.721Z,8.18
2023-04-04T23:49:14.050Z,8.31
2023-04-04T23:51:40.371Z,8.19
2023-04-04T23:54:06.669Z,8.19
2023-04-04T23:56:33.015Z,7.94
2023-04-04T23:58:59.342Z,8.08
